sensor_id;sensor_type;location;lat;lon;timestamp;pressure;altitude;pressure_sealevel;temperature;humidity
63556;BME280;49700;48.072;7.800;2023-01-29T00:00:06;100572.69;;;2.96;66.20
63556;BME280;49700;48.072;7.800;2023-01-29T00:02:37;100571.84;;;2.94;66.31
63556;BME280;49700;48.072;7.800;2023-01-29T00:05:04;100571.91;;;2.91;66.38
63556;BME280;49700;48.072;7.800;2023-01-29T00:07:30;100572.81;;;2.90;66.49
63556;BME280;49700;48.072;7.800;2023-01-29T00:09:56;100578.91;;;2.89;66.39
63556;BME280;49700;48.072;7.800;2023-01-29T00:12:21;100576.31;;;2.87;66.46
63556;BME280;49700;48.072;7.800;2023-01-29T00:14:47;100576.31;;;2.87;66.71
63556;BME280;49700;48.072;7.800;2023-01-29T00:17:12;100579.75;;;2.88;66.19
63556;BME280;49700;48.072;7.800;2023-01-29T00:19:37;100578.06;;;2.87;66.27
63556;BME280;49700;48.072;7.800;2023-01-29T00:22:03;100582.38;;;2.86;66.66
63556;BME280;49700;48.072;7.800;2023-01-29T00:24:28;100583.19;;;2.88;66.45
63556;BME280;49700;48.072;7.800;2023-01-29T00:26:54;100578.00;;;2.90;66.18
63556;BME280;49700;48.072;7.800;2023-01-29T00:29:19;100570.16;;;2.92;66.26
63556;BME280;49700;48.072;7.800;2023-01-29T00:31:46;100570.16;;;2.93;66.13
63556;BME280;49700;48.072;7.800;2023-01-29T00:34:12;100571.84;;;2.94;66.09
63556;BME280;49700;48.072;7.800;2023-01-29T00:36:37;100577.03;;;2.96;66.20
63556;BME280;49700;48.072;7.800;2023-01-29T00:39:03;100578.72;;;2.98;65.81
63556;BME280;49700;48.072;7.800;2023-01-29T00:41:35;100574.38;;;2.99;65.69
63556;BME280;49700;48.072;7.800;2023-01-29T00:44:36;100576.19;;;2.94;66.08
63556;BME280;49700;48.072;7.800;2023-01-29T00:47:20;100577.94;;;2.95;65.94
63556;BME280;49700;48.072;7.800;2023-01-29T00:49:55;100565.75;;;2.97;66.08
63556;BME280;49700;48.072;7.800;2023-01-29T00:52:21;100564.00;;;2.99;65.83
63556;BME280;49700;48.072;7.800;2023-01-29T00:54:50;100563.13;;;3.00;65.78
63556;BME280;49700;48.072;7.800;2023-01-29T00:57:16;100562.25;;;3.01;66.06
63556;BME280;49700;48.072;7.800;2023-01-29T00:59:41;100562.19;;;3.04;65.97
63556;BME280;49700;48.072;7.800;2023-01-29T01:02:07;100554.41;;;3.04;65.66
63556;BME280;49700;48.072;7.800;2023-01-29T01:04:51;100550.03;;;3.06;65.67
63556;BME280;49700;48.072;7.800;2023-01-29T01:07:16;100548.31;;;3.05;65.57
63556;BME280;49700;48.072;7.800;2023-01-29T01:09:42;100551.81;;;3.04;65.86
63556;BME280;49700;48.072;7.800;2023-01-29T01:12:27;100551.88;;;3.01;65.73
63556;BME280;49700;48.072;7.800;2023-01-29T01:14:52;100549.28;;;3.01;65.87
63556;BME280;49700;48.072;7.800;2023-01-29T01:17:18;100550.97;;;3.02;65.63
63556;BME280;49700;48.072;7.800;2023-01-29T01:19:44;100558.75;;;3.02;65.45
63556;BME280;49700;48.072;7.800;2023-01-29T01:22:09;100563.13;;;3.00;65.61
63556;BME280;49700;48.072;7.800;2023-01-29T01:24:36;100569.19;;;2.99;65.84
63556;BME280;49700;48.072;7.800;2023-01-29T01:27:01;100563.16;;;2.97;65.83
63556;BME280;49700;48.072;7.800;2023-01-29T01:29:48;100561.47;;;2.96;65.74
63556;BME280;49700;48.072;7.800;2023-01-29T01:32:18;100558.88;;;2.94;65.96
63556;BME280;49700;48.072;7.800;2023-01-29T01:35:08;100560.66;;;2.92;65.68
63556;BME280;49700;48.072;7.800;2023-01-29T01:37:51;100558.97;;;2.90;66.06
63556;BME280;49700;48.072;7.800;2023-01-29T01:40:50;100562.44;;;2.88;66.15
63556;BME280;49700;48.072;7.800;2023-01-29T01:43:27;100568.59;;;2.84;66.06
63556;BME280;49700;48.072;7.800;2023-01-29T01:46:05;100569.50;;;2.80;66.07
63556;BME280;49700;48.072;7.800;2023-01-29T01:48:40;100574.75;;;2.77;66.12
63556;BME280;49700;48.072;7.800;2023-01-29T01:51:16;100573.03;;;2.76;66.07
63556;BME280;49700;48.072;7.800;2023-01-29T01:59:52;100564.47;;;2.71;66.11
63556;BME280;49700;48.072;7.800;2023-01-29T02:02:30;100556.75;;;2.66;66.20
63556;BME280;49700;48.072;7.800;2023-01-29T02:05:26;100556.84;;;2.60;66.33
63556;BME280;49700;48.072;7.800;2023-01-29T02:08:31;100553.47;;;2.55;66.25
63556;BME280;49700;48.072;7.800;2023-01-29T02:11:29;100566.53;;;2.49;66.41
63556;BME280;49700;48.072;7.800;2023-01-29T02:14:04;100568.34;;;2.44;66.48
63556;BME280;49700;48.072;7.800;2023-01-29T02:16:44;100575.31;;;2.40;66.54
63556;BME280;49700;48.072;7.800;2023-01-29T02:30:46;100592.88;;;2.21;66.35
63556;BME280;49700;48.072;7.800;2023-01-29T02:33:39;100594.59;;;2.21;66.46
63556;BME280;49700;48.072;7.800;2023-01-29T02:36:21;100585.09;;;2.21;66.62
63556;BME280;49700;48.072;7.800;2023-01-29T02:39:15;100584.25;;;2.18;66.31
63556;BME280;49700;48.072;7.800;2023-01-29T02:42:12;100593.03;;;2.11;66.12
63556;BME280;49700;48.072;7.800;2023-01-29T02:47:56;100587.03;;;2.04;66.38
63556;BME280;49700;48.072;7.800;2023-01-29T02:50:38;100597.44;;;2.01;66.72
63556;BME280;49700;48.072;7.800;2023-01-29T02:53:28;100600.03;;;1.99;66.63
63556;BME280;49700;48.072;7.800;2023-01-29T02:56:13;100608.72;;;1.98;66.46
63556;BME280;49700;48.072;7.800;2023-01-29T02:58:48;100608.75;;;1.95;66.60
63556;BME280;49700;48.072;7.800;2023-01-29T03:01:21;100604.41;;;1.96;66.31
63556;BME280;49700;48.072;7.800;2023-01-29T03:03:56;100608.72;;;1.98;66.24
63556;BME280;49700;48.072;7.800;2023-01-29T03:06:44;100599.22;;;1.97;66.44
63556;BME280;49700;48.072;7.800;2023-01-29T03:12:07;100607.06;;;1.93;66.03
63556;BME280;49700;48.072;7.800;2023-01-29T03:14:49;100607.09;;;1.90;66.39
63556;BME280;49700;48.072;7.800;2023-01-29T03:18:03;100608.84;;;1.88;66.11
63556;BME280;49700;48.072;7.800;2023-01-29T03:20:43;100603.66;;;1.88;65.93
63556;BME280;49700;48.072;7.800;2023-01-29T03:23:20;100598.47;;;1.88;66.19
63556;BME280;49700;48.072;7.800;2023-01-29T03:25:53;100595.88;;;1.88;66.28
63556;BME280;49700;48.072;7.800;2023-01-29T03:28:43;100608.03;;;1.84;65.99
63556;BME280;49700;48.072;7.800;2023-01-29T03:31:33;100608.03;;;1.83;66.00
63556;BME280;49700;48.072;7.800;2023-01-29T03:34:43;100594.22;;;1.81;65.84
63556;BME280;49700;48.072;7.800;2023-01-29T03:37:41;100614.13;;;1.79;66.08
63556;BME280;49700;48.072;7.800;2023-01-29T03:40:11;100611.56;;;1.77;66.28
63556;BME280;49700;48.072;7.800;2023-01-29T03:43:12;100612.44;;;1.74;66.13
63556;BME280;49700;48.072;7.800;2023-01-29T03:46:07;100608.13;;;1.76;65.85
63556;BME280;49700;48.072;7.800;2023-01-29T03:48:52;100613.25;;;1.78;66.23
63556;BME280;49700;48.072;7.800;2023-01-29T03:51:31;100613.25;;;1.81;65.92
63556;BME280;49700;48.072;7.800;2023-01-29T03:56:59;100610.69;;;1.76;65.66
63556;BME280;49700;48.072;7.800;2023-01-29T03:59:52;100607.25;;;1.76;65.89
63556;BME280;49700;48.072;7.800;2023-01-29T04:02:52;100610.78;;;1.70;65.69
63556;BME280;49700;48.072;7.800;2023-01-29T04:05:27;100611.66;;;1.68;65.95
63556;BME280;49700;48.072;7.800;2023-01-29T04:08:10;100612.53;;;1.68;65.78
63556;BME280;49700;48.072;7.800;2023-01-29T04:10:44;100616.84;;;1.68;65.70
63556;BME280;49700;48.072;7.800;2023-01-29T04:13:21;100610.78;;;1.67;65.71
63556;BME280;49700;48.072;7.800;2023-01-29T04:16:09;100614.25;;;1.68;65.84
63556;BME280;49700;48.072;7.800;2023-01-29T04:19:19;100619.44;;;1.68;65.60
63556;BME280;49700;48.072;7.800;2023-01-29T04:22:04;100622.88;;;1.67;65.79
63556;BME280;49700;48.072;7.800;2023-01-29T04:24:32;100617.69;;;1.67;65.79
63556;BME280;49700;48.072;7.800;2023-01-29T04:30:13;100615.94;;;1.72;65.60
63556;BME280;49700;48.072;7.800;2023-01-29T04:33:02;100614.19;;;1.74;65.28
63556;BME280;49700;48.072;7.800;2023-01-29T04:41:28;100609.81;;;1.77;65.60
63556;BME280;49700;48.072;7.800;2023-01-29T04:44:20;100607.22;;;1.79;65.40
63556;BME280;49700;48.072;7.800;2023-01-29T04:47:14;100602.94;;;1.76;65.17
63556;BME280;49700;48.072;7.800;2023-01-29T04:50:33;100605.53;;;1.75;65.59
63556;BME280;49700;48.072;7.800;2023-01-29T04:52:56;100607.25;;;1.76;65.33
63556;BME280;49700;48.072;7.800;2023-01-29T04:55:39;100596.00;;;1.77;65.30
63556;BME280;49700;48.072;7.800;2023-01-29T04:58:31;100605.47;;;1.78;65.67
63556;BME280;49700;48.072;7.800;2023-01-29T05:01:10;100599.44;;;1.79;65.20
63556;BME280;49700;48.072;7.800;2023-01-29T05:03:52;100603.78;;;1.77;65.35
63556;BME280;49700;48.072;7.800;2023-01-29T05:06:30;100599.50;;;1.76;65.71
63556;BME280;49700;48.072;7.800;2023-01-29T05:09:04;100611.56;;;1.75;65.57
63556;BME280;49700;48.072;7.800;2023-01-29T05:11:34;100614.16;;;1.75;65.27
63556;BME280;49700;48.072;7.800;2023-01-29T05:14:02;100612.47;;;1.73;65.50
63556;BME280;49700;48.072;7.800;2023-01-29T05:16:50;100615.97;;;1.69;65.33
63556;BME280;49700;48.072;7.800;2023-01-29T05:19:20;100604.75;;;1.68;65.58
63556;BME280;49700;48.072;7.800;2023-01-29T05:21:47;100609.97;;;1.65;65.67
63556;BME280;49700;48.072;7.800;2023-01-29T05:24:36;100613.44;;;1.61;65.65
63556;BME280;49700;48.072;7.800;2023-01-29T05:27:19;100608.31;;;1.60;65.78
63556;BME280;49700;48.072;7.800;2023-01-29T05:30:05;100606.56;;;1.59;65.68
63556;BME280;49700;48.072;7.800;2023-01-29T05:32:36;100601.44;;;1.57;65.72
63556;BME280;49700;48.072;7.800;2023-01-29T05:35:09;100613.50;;;1.58;65.59
63556;BME280;49700;48.072;7.800;2023-01-29T05:37:37;100597.94;;;1.58;65.75
63556;BME280;49700;48.072;7.800;2023-01-29T05:40:08;100593.63;;;1.59;65.56
63556;BME280;49700;48.072;7.800;2023-01-29T05:42:38;100607.47;;;1.58;65.78
63556;BME280;49700;48.072;7.800;2023-01-29T05:45:07;100610.00;;;1.59;65.68
63556;BME280;49700;48.072;7.800;2023-01-29T05:47:41;100609.16;;;1.59;65.67
63556;BME280;49700;48.072;7.800;2023-01-29T05:50:10;100611.78;;;1.55;65.81
63556;BME280;49700;48.072;7.800;2023-01-29T05:52:43;100613.56;;;1.52;65.61
63556;BME280;49700;48.072;7.800;2023-01-29T05:55:12;100629.97;;;1.49;65.87
63556;BME280;49700;48.072;7.800;2023-01-29T05:57:57;100621.38;;;1.47;65.72
63556;BME280;49700;48.072;7.800;2023-01-29T06:00:23;100630.88;;;1.47;65.74
63556;BME280;49700;48.072;7.800;2023-01-29T06:02:57;100630.03;;;1.46;65.72
63556;BME280;49700;48.072;7.800;2023-01-29T06:05:43;100624.84;;;1.46;65.50
63556;BME280;49700;48.072;7.800;2023-01-29T06:08:19;100611.91;;;1.45;65.77
63556;BME280;49700;48.072;7.800;2023-01-29T06:11:29;100604.16;;;1.43;65.68
63556;BME280;49700;48.072;7.800;2023-01-29T06:14:14;100609.31;;;1.46;65.46
63556;BME280;49700;48.072;7.800;2023-01-29T06:17:00;100597.22;;;1.45;65.53
63556;BME280;49700;48.072;7.800;2023-01-29T06:19:44;100601.56;;;1.43;65.97
63556;BME280;49700;48.072;7.800;2023-01-29T06:23:03;100589.53;;;1.39;65.75
63556;BME280;49700;48.072;7.800;2023-01-29T06:26:23;100594.75;;;1.36;65.86
63556;BME280;49700;48.072;7.800;2023-01-29T06:28:56;100597.34;;;1.33;65.77
63556;BME280;49700;48.072;7.800;2023-01-29T06:32:19;100603.38;;;1.32;65.80
63556;BME280;49700;48.072;7.800;2023-01-29T06:35:30;100616.38;;;1.29;65.88
63556;BME280;49700;48.072;7.800;2023-01-29T06:38:10;100618.09;;;1.30;65.96
63556;BME280;49700;48.072;7.800;2023-01-29T06:41:18;100620.69;;;1.28;65.80
63556;BME280;49700;48.072;7.800;2023-01-29T06:44:36;100613.78;;;1.29;65.76
63556;BME280;49700;48.072;7.800;2023-01-29T06:47:41;100624.16;;;1.26;65.90
63556;BME280;49700;48.072;7.800;2023-01-29T06:50:37;100637.13;;;1.23;66.18
63556;BME280;49700;48.072;7.800;2023-01-29T06:53:11;100645.78;;;1.19;65.95
63556;BME280;49700;48.072;7.800;2023-01-29T06:56:14;100646.69;;;1.16;66.00
63556;BME280;49700;48.072;7.800;2023-01-29T06:58:54;100644.09;;;1.13;66.14
63556;BME280;49700;48.072;7.800;2023-01-29T07:01:50;100649.31;;;1.10;66.19
63556;BME280;49700;48.072;7.800;2023-01-29T07:04:38;100651.94;;;1.08;66.25
63556;BME280;49700;48.072;7.800;2023-01-29T07:07:11;100657.97;;;1.07;66.47
63556;BME280;49700;48.072;7.800;2023-01-29T07:09:57;100662.28;;;1.07;66.34
63556;BME280;49700;48.072;7.800;2023-01-29T07:12:46;100660.56;;;1.06;66.18
63556;BME280;49700;48.072;7.800;2023-01-29T07:15:35;100666.59;;;1.06;66.23
63556;BME280;49700;48.072;7.800;2023-01-29T07:18:06;100664.88;;;1.02;66.05
63556;BME280;49700;48.072;7.800;2023-01-29T07:21:02;100670.09;;;0.99;66.34
63556;BME280;49700;48.072;7.800;2023-01-29T07:23:53;100670.94;;;1.00;66.19
63556;BME280;49700;48.072;7.800;2023-01-29T07:26:32;100666.63;;;1.03;65.97
63556;BME280;49700;48.072;7.800;2023-01-29T07:29:10;100679.50;;;1.08;66.01
63556;BME280;49700;48.072;7.800;2023-01-29T07:31:41;100676.91;;;1.11;65.80
63556;BME280;49700;48.072;7.800;2023-01-29T07:34:19;100676.91;;;1.14;65.70
63556;BME280;49700;48.072;7.800;2023-01-29T07:37:00;100674.25;;;1.20;65.47
63556;BME280;49700;48.072;7.800;2023-01-29T07:39:57;100670.75;;;1.27;65.56
63556;BME280;49700;48.072;7.800;2023-01-29T07:42:39;100674.13;;;1.34;65.06
63556;BME280;49700;48.072;7.800;2023-01-29T07:45:11;100664.59;;;1.39;64.97
63556;BME280;49700;48.072;7.800;2023-01-29T07:48:12;100674.88;;;1.45;65.05
63556;BME280;49700;48.072;7.800;2023-01-29T07:50:56;100661.06;;;1.49;64.66
63556;BME280;49700;48.072;7.800;2023-01-29T07:53:35;100661.00;;;1.55;64.75
63556;BME280;49700;48.072;7.800;2023-01-29T07:56:25;100669.56;;;1.61;64.58
63556;BME280;49700;48.072;7.800;2023-01-29T07:58:58;100675.53;;;1.67;64.38
63556;BME280;49700;48.072;7.800;2023-01-29T08:01:56;100671.16;;;1.74;64.00
63556;BME280;49700;48.072;7.800;2023-01-29T08:07:29;100692.53;;;1.94;64.02
63556;BME280;49700;48.072;7.800;2023-01-29T08:09:59;100699.31;;;2.05;63.56
63556;BME280;49700;48.072;7.800;2023-01-29T08:12:30;100706.94;;;2.20;63.44
63556;BME280;49700;48.072;7.800;2023-01-29T08:15:17;100707.63;;;2.36;62.58
63556;BME280;49700;48.072;7.800;2023-01-29T08:17:58;100714.34;;;2.49;62.27
63556;BME280;49700;48.072;7.800;2023-01-29T08:20:35;100710.78;;;2.58;62.31
63556;BME280;49700;48.072;7.800;2023-01-29T08:23:46;100715.88;;;2.64;61.97
63556;BME280;49700;48.072;7.800;2023-01-29T08:30:16;100715.84;;;2.67;61.68
63556;BME280;49700;48.072;7.800;2023-01-29T08:33:11;100721.06;;;2.65;61.71
63556;BME280;49700;48.072;7.800;2023-01-29T08:48:12;100740.16;;;2.58;62.16
63556;BME280;49700;48.072;7.800;2023-01-29T08:51:36;100735.84;;;2.59;62.14
63556;BME280;49700;48.072;7.800;2023-01-29T08:54:54;100748.78;;;2.60;61.97
63556;BME280;49700;48.072;7.800;2023-01-29T09:05:03;100750.44;;;2.66;61.94
63556;BME280;49700;48.072;7.800;2023-01-29T09:07:36;100766.00;;;2.66;61.58
63556;BME280;49700;48.072;7.800;2023-01-29T09:10:10;100765.16;;;2.65;61.57
63556;BME280;49700;48.072;7.800;2023-01-29T09:13:01;100760.84;;;2.64;61.39
63556;BME280;49700;48.072;7.800;2023-01-29T09:23:10;100761.72;;;2.65;60.85
63556;BME280;49700;48.072;7.800;2023-01-29T09:30:00;100771.19;;;2.68;60.61
63556;BME280;49700;48.072;7.800;2023-01-29T09:33:12;100760.78;;;2.71;60.61
63556;BME280;49700;48.072;7.800;2023-01-29T09:36:50;100761.50;;;2.82;60.64
63556;BME280;49700;48.072;7.800;2023-01-29T09:39:28;100756.25;;;2.86;60.70
63556;BME280;49700;48.072;7.800;2023-01-29T09:42:36;100750.16;;;2.89;60.17
63556;BME280;49700;48.072;7.800;2023-01-29T09:45:29;100754.34;;;2.98;60.20
63556;BME280;49700;48.072;7.800;2023-01-29T09:48:11;100750.75;;;3.08;60.19
63556;BME280;49700;48.072;7.800;2023-01-29T10:00:23;100743.16;;;3.50;58.87
63556;BME280;49700;48.072;7.800;2023-01-29T10:06:14;100739.06;;;3.88;58.07
63556;BME280;49700;48.072;7.800;2023-01-29T10:08:46;100739.50;;;4.10;57.58
63556;BME280;49700;48.072;7.800;2023-01-29T10:11:22;100739.94;;;4.32;57.03
63556;BME280;49700;48.072;7.800;2023-01-29T10:21:56;100716.69;;;4.68;54.33
63556;BME280;49700;48.072;7.800;2023-01-29T10:24:37;100701.06;;;4.68;54.37
63556;BME280;49700;48.072;7.800;2023-01-29T10:27:13;100688.66;;;4.79;54.73
63556;BME280;49700;48.072;7.800;2023-01-29T10:29:41;100678.88;;;4.90;54.20
63556;BME280;49700;48.072;7.800;2023-01-29T10:32:13;100669.03;;;5.01;54.38
63556;BME280;49700;48.072;7.800;2023-01-29T10:37:39;100663.31;;;5.23;53.95
63556;BME280;49700;48.072;7.800;2023-01-29T10:40:23;100656.25;;;5.28;53.67
63556;BME280;49700;48.072;7.800;2023-01-29T10:43:16;100645.00;;;5.26;53.69
63556;BME280;49700;48.072;7.800;2023-01-29T10:48:44;100647.13;;;5.46;53.09
63556;BME280;49700;48.072;7.800;2023-01-29T10:51:25;100642.38;;;5.62;52.63
63556;BME280;49700;48.072;7.800;2023-01-29T10:54:19;100643.69;;;5.76;52.15
63556;BME280;49700;48.072;7.800;2023-01-29T10:59:45;100649.53;;;5.86;51.84
63556;BME280;49700;48.072;7.800;2023-01-29T11:02:18;100649.66;;;5.80;51.90
63556;BME280;49700;48.072;7.800;2023-01-29T11:04:45;100645.34;;;5.81;51.97
63556;BME280;49700;48.072;7.800;2023-01-29T11:07:11;100652.53;;;5.71;51.72
63556;BME280;49700;48.072;7.800;2023-01-29T11:10:32;100653.56;;;5.65;51.99
63556;BME280;49700;48.072;7.800;2023-01-29T11:12:39;100651.16;;;5.58;51.87
63556;BME280;49700;48.072;7.800;2023-01-29T11:15:15;100640.63;;;5.61;51.40
63556;BME280;49700;48.072;7.800;2023-01-29T11:20:29;100644.44;;;5.80;51.55
63556;BME280;49700;48.072;7.800;2023-01-29T11:22:54;100639.97;;;5.85;50.76
63556;BME280;49700;48.072;7.800;2023-01-29T11:25:21;100640.06;;;5.82;50.94
63556;BME280;49700;48.072;7.800;2023-01-29T11:27:54;100637.72;;;5.73;50.63
63556;BME280;49700;48.072;7.800;2023-01-29T11:30:24;100629.06;;;5.71;50.25
63556;BME280;49700;48.072;7.800;2023-01-29T11:32:59;100633.25;;;5.76;50.39
63556;BME280;49700;48.072;7.800;2023-01-29T11:35:30;100635.66;;;5.84;50.19
63556;BME280;49700;48.072;7.800;2023-01-29T11:38:20;100623.50;;;5.83;48.58
63556;BME280;49700;48.072;7.800;2023-01-29T11:40:46;100623.56;;;5.82;49.18
63556;BME280;49700;48.072;7.800;2023-01-29T11:43:15;100625.31;;;5.81;48.38
63556;BME280;49700;48.072;7.800;2023-01-29T11:45:42;100628.22;;;5.70;48.84
63556;BME280;49700;48.072;7.800;2023-01-29T11:48:14;100631.72;;;5.69;49.08
63556;BME280;49700;48.072;7.800;2023-01-29T11:50:41;100624.81;;;5.68;49.29
63556;BME280;49700;48.072;7.800;2023-01-29T11:53:20;100626.28;;;5.77;49.34
63556;BME280;49700;48.072;7.800;2023-01-29T11:55:47;100630.56;;;5.80;49.49
63556;BME280;49700;48.072;7.800;2023-01-29T11:58:28;100617.44;;;5.83;49.53
63556;BME280;49700;48.072;7.800;2023-01-29T12:00:55;100617.31;;;5.87;49.52
63556;BME280;49700;48.072;7.800;2023-01-29T12:03:34;100613.03;;;5.86;49.60
63556;BME280;49700;48.072;7.800;2023-01-29T12:06:07;100614.81;;;5.84;49.77
63556;BME280;49700;48.072;7.800;2023-01-29T12:08:38;100614.72;;;5.87;50.07
63556;BME280;49700;48.072;7.800;2023-01-29T12:11:08;100609.53;;;5.86;49.83
63556;BME280;49700;48.072;7.800;2023-01-29T12:13:34;100614.75;;;5.86;49.82
63556;BME280;49700;48.072;7.800;2023-01-29T12:16:24;100599.16;;;5.84;49.78
63556;BME280;49700;48.072;7.800;2023-01-29T12:19:10;100600.13;;;5.80;49.27
63556;BME280;49700;48.072;7.800;2023-01-29T12:21:47;100592.31;;;5.80;49.39
63556;BME280;49700;48.072;7.800;2023-01-29T12:24:30;100590.50;;;5.84;49.58
63556;BME280;49700;48.072;7.800;2023-01-29T12:27:09;100593.00;;;5.87;49.37
63556;BME280;49700;48.072;7.800;2023-01-29T12:29:57;100593.03;;;5.85;49.34
63556;BME280;49700;48.072;7.800;2023-01-29T12:32:43;100589.50;;;5.88;49.73
63556;BME280;49700;48.072;7.800;2023-01-29T12:38:03;100593.75;;;5.90;49.93
63556;BME280;49700;48.072;7.800;2023-01-29T12:40:44;100589.47;;;5.89;50.02
63556;BME280;49700;48.072;7.800;2023-01-29T12:43:21;100580.66;;;5.93;49.83
63556;BME280;49700;48.072;7.800;2023-01-29T12:45:52;100576.19;;;5.98;49.72
63556;BME280;49700;48.072;7.800;2023-01-29T12:48:33;100570.06;;;6.00;49.64
63556;BME280;49700;48.072;7.800;2023-01-29T12:51:12;100564.13;;;5.93;49.74
63556;BME280;49700;48.072;7.800;2023-01-29T12:53:56;100560.78;;;5.89;49.75
63556;BME280;49700;48.072;7.800;2023-01-29T12:56:37;100545.97;;;5.90;49.92
63556;BME280;49700;48.072;7.800;2023-01-29T12:59:16;100552.16;;;5.86;50.01
63556;BME280;49700;48.072;7.800;2023-01-29T13:01:49;100554.97;;;5.80;49.66
63556;BME280;49700;48.072;7.800;2023-01-29T13:06:54;100545.16;;;5.58;50.32
63556;BME280;49700;48.072;7.800;2023-01-29T13:09:26;100536.47;;;5.58;49.79
63556;BME280;49700;48.072;7.800;2023-01-29T13:12:01;100542.44;;;5.61;50.26
63556;BME280;49700;48.072;7.800;2023-01-29T13:14:39;100532.81;;;5.65;50.29
63556;BME280;49700;48.072;7.800;2023-01-29T13:17:13;100529.19;;;5.69;49.76
63556;BME280;49700;48.072;7.800;2023-01-29T13:19:45;100531.09;;;5.64;50.06
63556;BME280;49700;48.072;7.800;2023-01-29T13:22:20;100515.41;;;5.65;50.38
63556;BME280;49700;48.072;7.800;2023-01-29T13:24:46;100515.34;;;5.67;50.13
63556;BME280;49700;48.072;7.800;2023-01-29T13:27:27;100506.59;;;5.69;50.09
63556;BME280;49700;48.072;7.800;2023-01-29T13:29:54;100499.66;;;5.70;50.00
63556;BME280;49700;48.072;7.800;2023-01-29T13:32:26;100497.66;;;5.78;50.23
63556;BME280;49700;48.072;7.800;2023-01-29T13:34:54;100497.41;;;5.86;49.80
63556;BME280;49700;48.072;7.800;2023-01-29T13:37:41;100493.72;;;5.94;49.54
63556;BME280;49700;48.072;7.800;2023-01-29T13:40:20;100480.41;;;6.04;49.51
63556;BME280;49700;48.072;7.800;2023-01-29T13:42:47;100485.31;;;6.13;49.20
63556;BME280;49700;48.072;7.800;2023-01-29T13:45:20;100481.72;;;6.17;49.48
63556;BME280;49700;48.072;7.800;2023-01-29T13:47:47;100470.34;;;6.19;49.10
63556;BME280;49700;48.072;7.800;2023-01-29T13:50:27;100469.31;;;6.24;49.26
63556;BME280;49700;48.072;7.800;2023-01-29T13:52:56;100471.94;;;6.24;49.51
63556;BME280;49700;48.072;7.800;2023-01-29T13:55:31;100470.28;;;6.21;49.53
63556;BME280;49700;48.072;7.800;2023-01-29T13:57:59;100470.34;;;6.19;49.58
63556;BME280;49700;48.072;7.800;2023-01-29T14:10:39;100484.56;;;5.80;49.90
63556;BME280;49700;48.072;7.800;2023-01-29T14:18:35;100486.03;;;5.88;49.77
63556;BME280;49700;48.072;7.800;2023-01-29T14:21:06;100486.91;;;5.89;49.54
63556;BME280;49700;48.072;7.800;2023-01-29T14:23:47;100486.03;;;5.88;49.66
63556;BME280;49700;48.072;7.800;2023-01-29T14:28:56;100489.56;;;5.87;49.87
63556;BME280;49700;48.072;7.800;2023-01-29T14:31:43;100483.63;;;5.82;49.71
63556;BME280;49700;48.072;7.800;2023-01-29T14:34:33;100487.31;;;5.75;49.99
63556;BME280;49700;48.072;7.800;2023-01-29T14:37:13;100492.78;;;5.67;50.04
63556;BME280;49700;48.072;7.800;2023-01-29T14:39:48;100494.50;;;5.67;50.23
63556;BME280;49700;48.072;7.800;2023-01-29T14:42:24;100495.44;;;5.64;50.26
63556;BME280;49700;48.072;7.800;2023-01-29T14:50:01;100503.53;;;5.55;50.94
63556;BME280;49700;48.072;7.800;2023-01-29T14:52:39;100496.63;;;5.54;50.96
63556;BME280;49700;48.072;7.800;2023-01-29T14:55:13;100501.88;;;5.52;50.95
63556;BME280;49700;48.072;7.800;2023-01-29T14:57:43;100506.34;;;5.47;51.00
63556;BME280;49700;48.072;7.800;2023-01-29T15:00:31;100511.72;;;5.43;50.98
63556;BME280;49700;48.072;7.800;2023-01-29T15:02:59;100509.22;;;5.38;50.89
63556;BME280;49700;48.072;7.800;2023-01-29T15:05:31;100511.97;;;5.33;50.63
63556;BME280;49700;48.072;7.800;2023-01-29T15:08:23;100522.50;;;5.29;50.79
63556;BME280;49700;48.072;7.800;2023-01-29T15:10:56;100525.16;;;5.27;50.96
63556;BME280;49700;48.072;7.800;2023-01-29T15:13:50;100527.78;;;5.26;51.07
63556;BME280;49700;48.072;7.800;2023-01-29T15:16:21;100522.59;;;5.26;50.73
63556;BME280;49700;48.072;7.800;2023-01-29T15:18:52;100534.72;;;5.27;51.16
63556;BME280;49700;48.072;7.800;2023-01-29T15:21:20;100524.41;;;5.24;50.94
63556;BME280;49700;48.072;7.800;2023-01-29T15:23:46;100531.31;;;5.23;51.14
63556;BME280;49700;48.072;7.800;2023-01-29T15:26:31;100536.59;;;5.22;51.46
63556;BME280;49700;48.072;7.800;2023-01-29T15:28:59;100538.28;;;5.23;51.38
63556;BME280;49700;48.072;7.800;2023-01-29T15:31:25;100533.09;;;5.23;51.23
63556;BME280;49700;48.072;7.800;2023-01-29T15:33:54;100539.97;;;5.25;51.55
63556;BME280;49700;48.072;7.800;2023-01-29T15:36:27;100529.53;;;5.25;51.38
63556;BME280;49700;48.072;7.800;2023-01-29T15:39:24;100524.31;;;5.27;51.64
63556;BME280;49700;48.072;7.800;2023-01-29T15:42:08;100525.19;;;5.26;51.53
63556;BME280;49700;48.072;7.800;2023-01-29T15:44:36;100528.78;;;5.22;51.84
63556;BME280;49700;48.072;7.800;2023-01-29T15:47:08;100529.81;;;5.16;51.76
63556;BME280;49700;48.072;7.800;2023-01-29T15:49:35;100525.56;;;5.12;51.92
63556;BME280;49700;48.072;7.800;2023-01-29T15:52:07;100532.50;;;5.13;51.96
63556;BME280;49700;48.072;7.800;2023-01-29T15:54:37;100528.97;;;5.14;51.91
63556;BME280;49700;48.072;7.800;2023-01-29T15:57:03;100526.31;;;5.16;51.97
63556;BME280;49700;48.072;7.800;2023-01-29T15:59:32;100529.75;;;5.18;51.99
63556;BME280;49700;48.072;7.800;2023-01-29T16:02:28;100535.88;;;5.17;52.20
63556;BME280;49700;48.072;7.800;2023-01-29T16:04:56;100525.44;;;5.17;52.28
63556;BME280;49700;48.072;7.800;2023-01-29T16:07:22;100531.47;;;5.19;52.10
63556;BME280;49700;48.072;7.800;2023-01-29T16:09:48;100530.59;;;5.18;52.43
63556;BME280;49700;48.072;7.800;2023-01-29T16:12:14;100541.91;;;5.19;52.47
63556;BME280;49700;48.072;7.800;2023-01-29T16:14:40;100542.78;;;5.18;52.63
63556;BME280;49700;48.072;7.800;2023-01-29T16:17:32;100539.31;;;5.17;52.66